createdAt,value
2022-08-08T00:02:31.275Z,99.90
2022-08-08T00:05:03.417Z,99.90
2022-08-08T00:08:07.688Z,99.90
2022-08-08T00:11:14.800Z,99.90
2022-08-08T00:14:16.429Z,99.90
2022-08-08T00:17:22.870Z,99.90
2022-08-08T00:19:59.190Z,99.90
2022-08-08T00:22:47.268Z,99.90
2022-08-08T00:25:22.772Z,99.90
2022-08-08T00:27:52.990Z,99.90
2022-08-08T00:30:26.409Z,99.90
2022-08-08T00:33:06.145Z,99.90
2022-08-08T00:36:28.397Z,99.90
2022-08-08T00:41:07.833Z,99.90
2022-08-08T00:42:19.676Z,99.90
2022-08-08T00:45:21.476Z,99.90
2022-08-08T00:48:30.510Z,99.90
2022-08-08T00:51:38.406Z,99.90
2022-08-08T00:54:45.974Z,99.90
2022-08-08T00:57:35.874Z,99.90
2022-08-08T01:00:13.408Z,99.90
2022-08-08T01:03:59.667Z,99.90
2022-08-08T01:07:02.017Z,99.90
2022-08-08T01:10:15.953Z,99.90
2022-08-08T01:13:08.369Z,99.90
2022-08-08T01:15:54.933Z,99.90
2022-08-08T01:18:52.473Z,99.90
2022-08-08T01:22:10.386Z,99.90
2022-08-08T01:24:38.317Z,99.90
2022-08-08T01:27:47.013Z,99.90
2022-08-08T01:30:25.902Z,99.90
2022-08-08T01:33:33.740Z,99.90
2022-08-08T01:36:48.584Z,99.90
2022-08-08T01:39:42.286Z,99.90
2022-08-08T01:42:35.877Z,99.90
2022-08-08T01:45:15.960Z,99.90
2022-08-08T01:48:13.984Z,99.90
2022-08-08T01:50:34.744Z,99.90
2022-08-08T01:55:26.745Z,99.90
2022-08-08T01:56:58.775Z,99.90
2022-08-08T01:59:38.295Z,99.90
2022-08-08T02:02:39.799Z,99.90
2022-08-08T02:05:23.223Z,99.90
2022-08-08T02:08:08.163Z,99.90
2022-08-08T02:10:48.878Z,99.90
2022-08-08T02:13:54.120Z,99.90
2022-08-08T02:16:35.835Z,99.90
2022-08-08T02:19:26.800Z,99.90
2022-08-08T02:22:34.169Z,99.90
2022-08-08T02:25:48.987Z,99.90
2022-08-08T02:28:26.110Z,99.90
2022-08-08T02:31:58.909Z,99.90
2022-08-08T02:34:34.710Z,99.90
2022-08-08T02:37:52.066Z,99.90
2022-08-08T02:40:13.732Z,99.90
2022-08-08T02:44:34.948Z,99.90
2022-08-08T02:46:08.054Z,99.90
2022-08-08T02:49:02.700Z,99.90
2022-08-08T02:51:57.249Z,99.90
2022-08-08T02:54:53.255Z,99.90
2022-08-08T02:57:54.105Z,99.90
2022-08-08T03:00:39.388Z,99.90
2022-08-08T03:05:01.244Z,99.90
2022-08-08T03:06:35.035Z,99.90
2022-08-08T03:09:21.092Z,99.90
2022-08-08T03:12:35.943Z,99.90
2022-08-08T03:16:00.165Z,99.90
2022-08-08T03:18:31.973Z,99.90
2022-08-08T03:21:09.601Z,99.90
2022-08-08T03:23:56.598Z,99.90
2022-08-08T03:26:31.114Z,99.90
2022-08-08T03:29:04.586Z,99.90
2022-08-08T03:32:08.630Z,99.90
2022-08-08T03:34:39.876Z,99.90
2022-08-08T03:38:00.031Z,99.90
2022-08-08T03:40:06.070Z,99.90
2022-08-08T03:42:45.664Z,99.90
2022-08-08T03:46:06.453Z,99.90
2022-08-08T03:48:09.323Z,99.90
2022-08-08T03:50:50.282Z,99.90
2022-08-08T03:53:38.181Z,99.90
2022-08-08T03:56:09.689Z,99.90
2022-08-08T03:58:38.231Z,99.90
2022-08-08T04:01:23.777Z,99.90
2022-08-08T04:03:57.334Z,99.90
2022-08-08T04:06:29.896Z,99.90
2022-08-08T04:09:10.419Z,99.90
2022-08-08T04:11:58.140Z,99.90
2022-08-08T04:14:35.373Z,99.90
2022-08-08T04:17:04.280Z,99.90
2022-08-08T04:19:36.989Z,99.90
2022-08-08T04:22:04.623Z,99.90
2022-08-08T04:24:31.938Z,99.90
2022-08-08T04:27:01.879Z,99.90
2022-08-08T04:29:36.659Z,99.90
2022-08-08T04:32:06.816Z,99.90
2022-08-08T04:34:43.084Z,99.90
2022-08-08T04:37:26.293Z,99.90
2022-08-08T04:40:06.467Z,99.90
2022-08-08T04:42:36.747Z,99.90
2022-08-08T04:45:07.666Z,99.90
2022-08-08T04:47:36.396Z,99.90
2022-08-08T04:50:14.333Z,99.90
2022-08-08T04:52:58.937Z,99.90
2022-08-08T04:55:37.679Z,99.90
2022-08-08T04:58:17.567Z,99.90
2022-08-08T05:00:45.099Z,99.90
2022-08-08T05:03:19.038Z,99.90
2022-08-08T05:06:13.007Z,99.90
2022-08-08T05:08:51.515Z,99.90
2022-08-08T05:11:23.202Z,99.90
2022-08-08T05:13:55.282Z,99.90
2022-08-08T05:16:51.481Z,99.90
2022-08-08T05:20:05.128Z,99.90
2022-08-08T05:22:07.186Z,99.90
2022-08-08T05:24:34.827Z,99.90
2022-08-08T05:27:06.571Z,99.90
2022-08-08T05:29:35.579Z,99.90
2022-08-08T05:32:07.962Z,99.90
2022-08-08T05:34:39.323Z,99.90
2022-08-08T05:37:17.367Z,99.90
2022-08-08T05:39:53.063Z,99.90
2022-08-08T05:42:28.853Z,99.90
2022-08-08T05:45:09.988Z,99.90
2022-08-08T05:48:00.476Z,99.90
2022-08-08T05:50:33.493Z,99.90
2022-08-08T05:53:23.085Z,99.90
2022-08-08T05:56:07.936Z,99.90
2022-08-08T05:58:53.694Z,99.90
2022-08-08T06:01:55.564Z,99.90
2022-08-08T06:04:22.869Z,99.90
2022-08-08T06:06:56.664Z,99.90
2022-08-08T06:09:59.012Z,99.90
2022-08-08T06:12:30.069Z,99.90
2022-08-08T06:15:00.863Z,99.90
2022-08-08T06:17:51.369Z,99.90
2022-08-08T06:20:16.217Z,99.90
2022-08-08T06:22:43.398Z,99.90
2022-08-08T06:25:11.269Z,99.90
2022-08-08T06:27:56.247Z,99.90
2022-08-08T06:30:28.221Z,99.90
2022-08-08T06:33:01.251Z,99.90
2022-08-08T06:36:06.739Z,99.90
2022-08-08T06:38:28.974Z,99.90
2022-08-08T06:41:07.384Z,99.90
2022-08-08T06:43:40.865Z,99.90
2022-08-08T06:46:16.242Z,99.90
2022-08-08T06:48:43.909Z,99.90
2022-08-08T06:51:14.446Z,99.90
2022-08-08T06:53:51.381Z,99.90
2022-08-08T06:56:26.267Z,99.90
2022-08-08T06:58:53.377Z,99.90
2022-08-08T07:02:18.172Z,99.90
2022-08-08T07:04:37.833Z,99.90
2022-08-08T07:07:12.173Z,99.90
2022-08-08T07:10:08.295Z,99.90
2022-08-08T07:12:47.975Z,99.90
2022-08-08T07:15:32.021Z,99.90
2022-08-08T07:18:36.848Z,99.90
2022-08-08T07:21:19.367Z,99.90
2022-08-08T07:24:05.510Z,99.90
2022-08-08T07:26:35.878Z,99.90
2022-08-08T07:29:05.880Z,99.90
2022-08-08T07:31:36.547Z,99.90
2022-08-08T07:34:08.611Z,99.90
2022-08-08T07:36:48.350Z,99.90
2022-08-08T07:39:29.442Z,99.90
2022-08-08T07:42:04.040Z,99.90
2022-08-08T07:44:37.749Z,99.90
2022-08-08T07:47:08.791Z,99.90
2022-08-08T07:49:40.132Z,99.90
2022-08-08T07:52:13.307Z,99.90
2022-08-08T07:55:10.907Z,99.90
2022-08-08T07:57:50.439Z,99.90
2022-08-08T08:00:18.603Z,99.90
2022-08-08T08:02:55.567Z,99.90
2022-08-08T08:05:40.590Z,99.90
2022-08-08T08:08:21.037Z,99.90
2022-08-08T08:10:56.225Z,99.90
2022-08-08T08:14:08.584Z,99.90
2022-08-08T08:16:41.435Z,99.90
2022-08-08T08:19:12.836Z,99.90
2022-08-08T08:21:57.187Z,99.90
2022-08-08T08:24:30.887Z,99.90
2022-08-08T08:27:02.714Z,99.90
2022-08-08T08:29:31.946Z,99.90
2022-08-08T08:32:05.453Z,99.90
2022-08-08T08:34:33.894Z,99.90
2022-08-08T08:37:07.586Z,99.90
2022-08-08T08:39:59.381Z,99.90
2022-08-08T08:42:32.091Z,99.90
2022-08-08T08:45:21.220Z,99.90
2022-08-08T08:47:54.700Z,99.90
2022-08-08T08:50:33.415Z,99.90
2022-08-08T08:53:28.094Z,99.90
2022-08-08T08:56:02.227Z,99.90
2022-08-08T08:58:43.070Z,99.90
2022-08-08T09:01:16.044Z,99.90
2022-08-08T09:03:50.922Z,99.90
2022-08-08T09:06:33.089Z,99.90
2022-08-08T09:09:35.048Z,99.90
2022-08-08T09:12:09.713Z,99.90
2022-08-08T09:14:43.005Z,99.90
2022-08-08T09:17:18.774Z,99.90
2022-08-08T09:22:00.861Z,99.90
2022-08-08T09:22:47.810Z,99.90
2022-08-08T09:25:15.490Z,99.90
2022-08-08T09:27:58.115Z,99.90
2022-08-08T09:30:27.993Z,99.90
2022-08-08T09:33:11.884Z,99.90
2022-08-08T09:35:50.412Z,99.90
2022-08-08T09:38:54.048Z,99.90
2022-08-08T09:41:54.900Z,99.90
2022-08-08T09:44:50.136Z,99.90
2022-08-08T09:48:02.554Z,99.90
2022-08-08T09:50:13.889Z,99.90
2022-08-08T09:52:56.285Z,99.90
2022-08-08T09:55:51.888Z,99.90
2022-08-08T09:58:26.003Z,99.90
2022-08-08T10:01:03.376Z,99.90
2022-08-08T10:03:56.031Z,99.90
2022-08-08T10:06:26.754Z,99.90
2022-08-08T10:08:57.263Z,99.90
2022-08-08T10:12:28.148Z,99.90
2022-08-08T10:14:28.646Z,99.90
2022-08-08T10:17:57.178Z,99.90
2022-08-08T10:20:05.187Z,99.90
2022-08-08T10:22:54.971Z,99.90
2022-08-08T10:25:23.786Z,99.90
2022-08-08T10:27:53.980Z,99.90
2022-08-08T10:30:57.519Z,99.90
2022-08-08T10:33:14.285Z,99.90
2022-08-08T10:36:07.494Z,99.90
2022-08-08T10:38:46.488Z,99.90
2022-08-08T10:41:20.333Z,99.90
2022-08-08T10:43:51.794Z,99.90
2022-08-08T10:46:30.135Z,99.90
2022-08-08T10:48:59.155Z,99.90
2022-08-08T10:51:30.817Z,99.90
2022-08-08T10:54:00.149Z,99.90
2022-08-08T10:56:35.806Z,99.90
2022-08-08T10:59:12.125Z,99.90
2022-08-08T11:01:49.260Z,99.90
2022-08-08T11:04:29.562Z,99.90
2022-08-08T11:07:06.889Z,99.90
2022-08-08T11:09:35.272Z,99.90
2022-08-08T11:12:13.078Z,99.90
2022-08-08T11:14:57.175Z,99.90
2022-08-08T11:17:58.278Z,99.90
2022-08-08T11:20:27.449Z,99.90
2022-08-08T11:23:05.383Z,99.90
2022-08-08T11:25:52.716Z,99.90
2022-08-08T11:28:29.495Z,99.90
2022-08-08T11:31:00.837Z,99.90
2022-08-08T11:33:53.528Z,99.90
2022-08-08T11:36:27.811Z,99.90
2022-08-08T11:38:57.630Z,99.90
2022-08-08T11:41:28.036Z,99.90
2022-08-08T11:44:00.516Z,99.90
2022-08-08T11:46:31.824Z,99.90
2022-08-08T11:49:04.291Z,99.90
2022-08-08T11:51:40.039Z,99.90
2022-08-08T11:54:31.682Z,99.90
2022-08-08T11:57:17.519Z,99.90
2022-08-08T12:00:01.489Z,99.90
2022-08-08T12:02:33.752Z,99.90
2022-08-08T12:05:13.071Z,99.90
2022-08-08T12:07:51.445Z,99.20
2022-08-08T12:10:22.135Z,95.70
2022-08-08T12:12:51.899Z,93.10
2022-08-08T12:15:41.782Z,90.70
2022-08-08T12:18:14.328Z,80.90
2022-08-08T12:20:43.429Z,77.10
2022-08-08T12:23:13.995Z,75.40
2022-08-08T12:26:08.035Z,73.20
2022-08-08T12:28:35.115Z,70.00
2022-08-08T12:31:07.638Z,67.30
2022-08-08T12:34:02.040Z,65.70
2022-08-08T12:36:28.622Z,64.80
2022-08-08T12:39:01.577Z,63.80
2022-08-08T12:41:57.214Z,64.70
2022-08-08T12:44:32.131Z,65.60
2022-08-08T12:47:02.711Z,67.50
2022-08-08T12:49:45.149Z,68.70
2022-08-08T12:52:28.313Z,70.00
2022-08-08T12:55:13.380Z,70.70
2022-08-08T12:57:56.126Z,72.10
2022-08-08T13:00:34.136Z,73.20
2022-08-08T13:03:07.276Z,72.60
2022-08-08T13:06:02.838Z,71.50
2022-08-08T13:08:22.073Z,70.50
2022-08-08T13:11:00.186Z,68.60
2022-08-08T13:13:35.197Z,65.90
2022-08-08T13:16:25.630Z,64.50
2022-08-08T13:19:01.772Z,62.20
2022-08-08T13:21:55.421Z,60.30
2022-08-08T13:24:38.633Z,58.30
2022-08-08T13:27:13.224Z,55.20
2022-08-08T13:29:55.543Z,53.60
2022-08-08T13:32:25.538Z,52.50
2022-08-08T13:34:55.654Z,53.10
2022-08-08T13:37:51.610Z,52.90
2022-08-08T13:40:17.981Z,52.60
2022-08-08T13:42:55.440Z,52.60
2022-08-08T13:45:24.093Z,53.60
2022-08-08T13:48:03.927Z,54.50
2022-08-08T13:50:49.073Z,55.60
2022-08-08T13:53:31.485Z,56.30
2022-08-08T13:56:02.722Z,55.80
2022-08-08T13:58:30.400Z,56.30
2022-08-08T14:00:57.871Z,56.20
2022-08-08T14:03:52.191Z,57.10
2022-08-08T14:06:32.280Z,58.50
2022-08-08T14:09:18.370Z,59.50
2022-08-08T14:11:48.777Z,61.00
2022-08-08T14:14:16.477Z,62.30
2022-08-08T14:16:51.092Z,64.00
2022-08-08T14:19:21.296Z,65.40
2022-08-08T14:21:59.214Z,67.00
2022-08-08T14:24:33.350Z,68.40
2022-08-08T14:27:01.997Z,69.80
2022-08-08T14:29:39.402Z,71.20
2022-08-08T14:32:11.727Z,72.20
2022-08-08T14:34:42.330Z,73.50
2022-08-08T14:37:13.102Z,74.20
2022-08-08T14:39:50.180Z,75.10
2022-08-08T14:42:26.766Z,75.90
2022-08-08T14:45:00.312Z,76.10
2022-08-08T14:47:27.974Z,76.20
2022-08-08T14:50:11.475Z,76.00
2022-08-08T14:52:44.459Z,76.00
2022-08-08T14:55:14.396Z,74.80
2022-08-08T14:58:03.594Z,73.90
2022-08-08T15:00:31.986Z,72.20
2022-08-08T15:03:16.068Z,70.40
2022-08-08T15:05:52.278Z,68.60
2022-08-08T15:08:34.452Z,67.40
2022-08-08T15:11:04.783Z,65.70
2022-08-08T15:13:40.327Z,64.00
2022-08-08T15:16:20.936Z,63.70
2022-08-08T15:18:51.280Z,63.60
2022-08-08T15:21:20.826Z,63.10
2022-08-08T15:23:52.010Z,61.50
2022-08-08T15:26:20.469Z,60.30
2022-08-08T15:28:50.912Z,59.60
2022-08-08T15:31:56.137Z,59.00
2022-08-08T15:34:18.412Z,58.80
2022-08-08T15:36:58.066Z,59.40
2022-08-08T15:39:25.727Z,59.80
2022-08-08T15:41:54.346Z,60.80
2022-08-08T15:44:22.202Z,61.40
2022-08-08T15:46:51.141Z,62.50
2022-08-08T15:49:20.549Z,62.40
2022-08-08T15:51:50.162Z,62.70
2022-08-08T15:54:18.782Z,62.00
2022-08-08T15:57:07.380Z,61.60
2022-08-08T16:00:25.415Z,61.30
2022-08-08T16:02:31.249Z,61.30
2022-08-08T16:05:01.911Z,61.70
2022-08-08T16:07:52.136Z,62.00
2022-08-08T16:13:11.263Z,62.00
2022-08-08T16:13:29.292Z,62.50
2022-08-08T16:15:57.269Z,62.70
2022-08-08T16:18:28.114Z,62.80
2022-08-08T16:20:59.903Z,63.70
2022-08-08T16:23:32.688Z,65.40
2022-08-08T16:26:12.821Z,66.90
2022-08-08T16:28:41.485Z,67.70
2022-08-08T16:31:09.438Z,68.70
2022-08-08T16:33:38.481Z,69.80
2022-08-08T16:36:13.046Z,70.50
2022-08-08T16:38:53.902Z,72.00
2022-08-08T16:41:24.529Z,73.20
2022-08-08T16:43:55.004Z,73.60
2022-08-08T16:46:44.379Z,74.00
2022-08-08T16:49:09.915Z,74.50
2022-08-08T16:55:04.692Z,75.30
2022-08-08T16:55:18.255Z,76.00
2022-08-08T16:57:23.695Z,76.70
2022-08-08T17:00:09.722Z,77.20
2022-08-08T17:02:39.926Z,77.60
2022-08-08T17:05:12.830Z,78.00
2022-08-08T17:07:41.852Z,78.50
2022-08-08T17:10:16.952Z,78.60
2022-08-08T17:12:52.739Z,78.60
2022-08-08T17:15:22.827Z,79.30
2022-08-08T17:18:02.802Z,79.60
2022-08-08T17:20:39.606Z,80.20
2022-08-08T17:23:17.960Z,80.90
2022-08-08T17:25:55.078Z,81.50
2022-08-08T17:28:34.456Z,82.60
2022-08-08T17:31:39.311Z,83.30
2022-08-08T17:34:49.090Z,84.30
2022-08-08T17:36:55.185Z,84.80
2022-08-08T17:40:03.914Z,85.40
2022-08-08T17:42:15.572Z,86.20
2022-08-08T17:44:44.210Z,87.00
2022-08-08T17:47:23.254Z,87.60
2022-08-08T17:50:01.568Z,88.40
2022-08-08T17:52:35.203Z,89.50
2022-08-08T17:55:05.753Z,90.10
2022-08-08T17:57:49.845Z,90.30
2022-08-08T18:00:19.503Z,90.70
2022-08-08T18:02:52.594Z,91.00
2022-08-08T18:05:49.697Z,91.40
2022-08-08T18:08:24.671Z,91.90
2022-08-08T18:11:16.760Z,92.30
2022-08-08T18:13:47.911Z,92.70
2022-08-08T18:16:20.458Z,93.10
2022-08-08T18:18:52.353Z,93.20
2022-08-08T18:21:34.668Z,93.80
2022-08-08T18:24:17.297Z,94.10
2022-08-08T18:26:54.630Z,94.70
2022-08-08T18:29:30.172Z,95.10
2022-08-08T18:32:09.010Z,95.70
2022-08-08T18:34:40.265Z,96.20
2022-08-08T18:37:09.343Z,96.70
2022-08-08T18:39:41.360Z,97.20
2022-08-08T18:42:16.126Z,97.50
2022-08-08T18:44:53.092Z,98.00
2022-08-08T18:47:24.002Z,98.40
2022-08-08T18:49:58.365Z,98.90
2022-08-08T18:52:27.985Z,99.30
2022-08-08T18:55:00.714Z,99.70
2022-08-08T18:57:41.213Z,99.90
2022-08-08T19:00:17.019Z,99.90
2022-08-08T19:02:55.488Z,99.90
2022-08-08T19:05:31.833Z,99.90
2022-08-08T19:08:08.496Z,99.90
2022-08-08T19:10:36.427Z,99.90
2022-08-08T19:13:04.227Z,99.90
2022-08-08T19:15:38.224Z,99.90
2022-08-08T19:18:32.720Z,99.90
2022-08-08T19:20:54.669Z,99.90
2022-08-08T19:23:21.880Z,99.90
2022-08-08T19:26:20.231Z,99.90
2022-08-08T19:28:36.455Z,99.90
2022-08-08T19:31:07.171Z,99.90
2022-08-08T19:33:51.755Z,99.90
2022-08-08T19:36:27.344Z,99.90
2022-08-08T19:38:55.191Z,99.90
2022-08-08T19:41:25.424Z,99.90
2022-08-08T19:44:02.638Z,99.90
2022-08-08T19:46:33.699Z,99.90
2022-08-08T19:49:01.638Z,99.90
2022-08-08T19:51:34.885Z,99.90
2022-08-08T19:54:08.507Z,99.90
2022-08-08T19:56:40.247Z,99.90
2022-08-08T19:59:11.755Z,99.90
2022-08-08T20:01:59.777Z,99.90
2022-08-08T20:04:27.876Z,99.90
2022-08-08T20:06:56.974Z,99.90
2022-08-08T20:09:24.799Z,99.90
2022-08-08T20:11:52.235Z,99.90
2022-08-08T20:14:35.756Z,99.90
2022-08-08T20:17:05.225Z,99.90
2022-08-08T20:19:34.627Z,99.90
2022-08-08T20:22:20.550Z,99.90
2022-08-08T20:24:48.650Z,99.90
2022-08-08T20:27:20.642Z,99.90
2022-08-08T20:30:00.525Z,99.90
2022-08-08T20:32:30.047Z,99.90
2022-08-08T20:35:01.978Z,99.90
2022-08-08T20:37:37.325Z,99.90
2022-08-08T20:40:17.414Z,99.90
2022-08-08T20:42:54.123Z,99.90
2022-08-08T20:45:55.179Z,99.90
2022-08-08T20:48:10.106Z,99.90
2022-08-08T20:50:37.676Z,99.90
2022-08-08T20:53:06.894Z,99.90
2022-08-08T20:55:43.112Z,99.90
2022-08-08T20:58:23.095Z,99.90
2022-08-08T21:00:50.894Z,99.90
2022-08-08T21:03:17.758Z,99.90
2022-08-08T21:05:58.646Z,99.90
2022-08-08T21:08:36.332Z,99.90
2022-08-08T21:11:13.596Z,99.90
2022-08-08T21:13:41.966Z,99.90
2022-08-08T21:16:28.630Z,99.90
2022-08-08T21:18:57.540Z,99.90
2022-08-08T21:21:39.653Z,99.90
2022-08-08T21:24:22.329Z,99.90
2022-08-08T21:26:55.628Z,99.90
2022-08-08T21:30:05.361Z,99.90
2022-08-08T21:32:14.043Z,99.90
2022-08-08T21:34:49.697Z,99.90
2022-08-08T21:37:19.144Z,99.90
2022-08-08T21:39:56.238Z,99.90
2022-08-08T21:42:24.039Z,99.90
2022-08-08T21:44:59.100Z,99.90
2022-08-08T21:48:05.838Z,99.90
2022-08-08T21:50:28.256Z,99.90
2022-08-08T21:54:27.501Z,99.90
2022-08-08T21:56:25.923Z,99.90
2022-08-08T21:58:32.265Z,99.90
2022-08-08T22:01:04.669Z,99.90
2022-08-08T22:03:32.235Z,99.90
2022-08-08T22:06:01.038Z,99.90
2022-08-08T22:08:37.353Z,99.90
2022-08-08T22:11:51.272Z,99.90
2022-08-08T22:13:58.544Z,99.90
2022-08-08T22:16:26.729Z,99.90
2022-08-08T22:18:53.538Z,99.90
2022-08-08T22:21:21.855Z,99.90
2022-08-08T22:23:52.242Z,99.90
2022-08-08T22:26:28.648Z,99.90
2022-08-08T22:29:14.853Z,99.90
2022-08-08T22:31:58.349Z,99.90
2022-08-08T22:34:29.157Z,99.90
2022-08-08T22:36:56.970Z,99.90
2022-08-08T22:39:39.496Z,99.90
2022-08-08T22:42:10.723Z,99.90
2022-08-08T22:44:37.809Z,99.90
2022-08-08T22:47:17.706Z,99.90
2022-08-08T22:49:45.198Z,99.90
2022-08-08T22:52:25.865Z,99.90
2022-08-08T22:54:56.058Z,99.90
2022-08-08T22:57:44.161Z,99.90
2022-08-08T23:00:17.225Z,99.90
2022-08-08T23:02:50.182Z,99.90
2022-08-08T23:05:21.472Z,99.90
2022-08-08T23:07:51.865Z,99.90
2022-08-08T23:10:26.789Z,99.90
2022-08-08T23:12:55.091Z,99.90
2022-08-08T23:16:39.772Z,99.90
2022-08-08T23:18:12.844Z,99.90
2022-08-08T23:20:44.153Z,99.90
2022-08-08T23:23:12.472Z,99.90
2022-08-08T23:25:48.551Z,99.90
2022-08-08T23:28:17.755Z,99.90
2022-08-08T23:30:47.564Z,99.90
2022-08-08T23:33:20.910Z,99.90
2022-08-08T23:36:08.651Z,99.90
2022-08-08T23:38:36.858Z,99.90
2022-08-08T23:41:12.151Z,99.90
2022-08-08T23:43:50.172Z,99.90
2022-08-08T23:49:06.938Z,99.90
2022-08-08T23:49:18.891Z,99.90
2022-08-08T23:52:06.018Z,99.90
2022-08-08T23:54:42.399Z,99.90
2022-08-08T23:57:26.784Z,99.90
